Haysville, KS

2:40 AM CST on December 15, 2019 (GMT -0600)
Orchard Point | | Change Station
Active Advisory: Winter Weather Advisory

Elev 1272 ft 37.55 °N, 97.32 °W | Updated 11 seconds ago

Overcast
Overcast
28.9 °F
Feels Like 21 °F
N
8.7
Wind Variable Wind from ENE
Gusts 11.9 mph

Today
High -- | Low -- °F
--% Chance of Precip.
Yesterday
High -- | Low -- °F
Precip. -- in
Pressure 29.96 in
Visibility 10.0 miles
Clouds Mostly Cloudy 5500 ft
Overcast 7500 ft
Windchill 21 °F
Dew Point 26 °F
Humidity 89%
Rainfall 0.00 in
Snow Depth Not available.
7:36 AM 5:12 PM
Waning Gibbous, 88% visible
SPECI KIAB 150814Z AUTO 08009KT 10SM -SN BKN055 OVC075 M02/M07 A2991 RMK AO2 SNB14 SLP143 $
Pressure 29.96 in
Visibility 10.0 miles
Clouds Mostly Cloudy 5500 ft
Overcast 7500 ft
Windchill 21 °F
Dew Point 26 °F
Humidity 89%
Rainfall 0.00 in
Snow Depth Not available.
7:36 AM 5:12 PM
Waning Gibbous, 88% visible
SPECI KIAB 150814Z AUTO 08009KT 10SM -SN BKN055 OVC075 M02/M07 A2991 RMK AO2 SNB14 SLP143 $

Get Your Daily Forecast Email!

Thanks for signing up!

Be on the lookout for a verification email in your inbox.

You'll start receiving severe weather alerts in your inbox..

×

10-Day Weather Forecast

Almanac

Astronomy

Dec. 15, 2019 Rise Set
Actual Time
Civil Twilight
Nautical Twilight
Astronomical Twilight
Moon
Length of Visible Light
Length of Day
Tomorrow will be .
, % of the Moon is Illuminated

Today's Extremes

State Highs State Lows

Community

WunderPhotos

Category 6

Welcome to Category 6. This is the collective home for Weather Underground's featured writeups by Dr. Jeff Masters (right), Bob Henson (left), Chris Burt, and other regular contributors.

Nearby

Air Quality

  Air Quality AQ Index Pollutant
Not available.

Snow Depth

Station Depth Elevation

Earthquake Activity

City Distance Mag. Time & Date
Minimum magnitude displayed is 2.5.

Coastal Water Temperatures

Place Temperature

Stations

Nearby Weather Stations

Station Location Temp. Windchill Dew Point Humidity Wind Precip. Elev Updated Type
                   

Watches & Warnings

Winter Weather Advisory
Issued: 3:38 PM CST Dec. 14, 2019 – National Weather Service

... Winter Weather Advisory now in effect from 6 am Sunday to 6 PM
CST Monday...

* what... mixed precipitation expected. Total snow accumulations of
1 to 4 inches with the higher snow totals mainly for central and
northeast Kansas. Look for ice accumulations of around one
tenth of an inch.

* Where... portions of central, south central and southeast
Kansas.

* When... from 6 am Sunday to 6 PM CST Monday.

* Impacts... plan on slippery Road conditions. The hazardous
conditions could impact the morning or evening commute.


Precautionary/preparedness actions...

Slow down and use caution while traveling.

The latest Road conditions for the state you are calling from can
be obtained by calling 5 1 1.



Lawson